Kincolith, Canada
Current Conditions -  °F | °C
As of 11:00 AM on Thursday 30 Oct 2014 (Local Time) from CYPR Reporting Station
Light Rain Light Rain  
Wind Chill: 46°   Ceiling: 5500
Heat Index: 48°   Visibility: 9mi
Dew Point: 46°   Wind: 6mph
Humidity: 93%   Direction: 100°E
Pressure: 29.44"   Gusts: NA
Location:  55°N, 129.95°W
Report Text: CYPR 301800Z AUTO 10005KT 050V110 9SM -RA OVC055 09/08 A2944 RMK PCPN 2.8MM PAST HR SLP968
Loading
Personal Weather Stations






























Interactive Weather Map
Tropical Storm Tracking
New forecast layout! Learn more

10-Day Weather Forecast

Advertisements
Track Severe Weather on mobile